sensor_id;sensor_type;location;lat;lon;timestamp;P1;durP1;ratioP1;P2;durP2;ratioP2
6015;SDS011;3036;49.960;8.454;2022-10-17T00:01:39;1.60;;;1.50;;
6015;SDS011;3036;49.960;8.454;2022-10-17T00:04:06;2.78;;;1.20;;
6015;SDS011;3036;49.960;8.454;2022-10-17T00:06:34;1.27;;;1.27;;
6015;SDS011;3036;49.960;8.454;2022-10-17T00:09:01;4.53;;;1.20;;
6015;SDS011;3036;49.960;8.454;2022-10-17T00:11:28;1.00;;;1.00;;
6015;SDS011;3036;49.960;8.454;2022-10-17T00:13:55;4.20;;;1.20;;
6015;SDS011;3036;49.960;8.454;2022-10-17T00:16:23;1.48;;;1.33;;
6015;SDS011;3036;49.960;8.454;2022-10-17T00:18:54;1.10;;;1.10;;
6015;SDS011;3036;49.960;8.454;2022-10-17T00:21:22;5.88;;;2.95;;
6015;SDS011;3036;49.960;8.454;2022-10-17T00:23:49;4.65;;;2.72;;
6015;SDS011;3036;49.960;8.454;2022-10-17T00:26:16;4.07;;;3.57;;
6015;SDS011;3036;49.960;8.454;2022-10-17T00:28:44;1.90;;;1.80;;
6015;SDS011;3036;49.960;8.454;2022-10-17T00:31:12;1.48;;;1.33;;
6015;SDS011;3036;49.960;8.454;2022-10-17T00:33:39;1.45;;;1.23;;
6015;SDS011;3036;49.960;8.454;2022-10-17T00:36:10;1.10;;;0.98;;
6015;SDS011;3036;49.960;8.454;2022-10-17T00:38:37;1.10;;;1.10;;
6015;SDS011;3036;49.960;8.454;2022-10-17T00:41:05;6.00;;;1.70;;
6015;SDS011;3036;49.960;8.454;2022-10-17T00:46:14;1.75;;;1.40;;
6015;SDS011;3036;49.960;8.454;2022-10-17T00:48:41;1.10;;;1.10;;
6015;SDS011;3036;49.960;8.454;2022-10-17T00:51:10;1.30;;;1.20;;
6015;SDS011;3036;49.960;8.454;2022-10-17T00:53:37;1.10;;;1.00;;
6015;SDS011;3036;49.960;8.454;2022-10-17T00:56:05;1.27;;;1.17;;
6015;SDS011;3036;49.960;8.454;2022-10-17T00:58:32;2.20;;;0.93;;
6015;SDS011;3036;49.960;8.454;2022-10-17T01:00:59;0.93;;;0.93;;
6015;SDS011;3036;49.960;8.454;2022-10-17T01:03:27;1.48;;;0.93;;
6015;SDS011;3036;49.960;8.454;2022-10-17T01:05:54;2.20;;;0.93;;
6015;SDS011;3036;49.960;8.454;2022-10-17T01:08:23;2.10;;;1.30;;
6015;SDS011;3036;49.960;8.454;2022-10-17T01:10:52;1.20;;;0.87;;
6015;SDS011;3036;49.960;8.454;2022-10-17T01:13:24;3.93;;;1.00;;
6015;SDS011;3036;49.960;8.454;2022-10-17T01:15:55;0.80;;;0.80;;
6015;SDS011;3036;49.960;8.454;2022-10-17T01:18:29;0.80;;;0.80;;
6015;SDS011;3036;49.960;8.454;2022-10-17T01:20:59;2.20;;;0.87;;
6015;SDS011;3036;49.960;8.454;2022-10-17T01:23:53;0.90;;;0.90;;
6015;SDS011;3036;49.960;8.454;2022-10-17T01:26:22;3.53;;;1.00;;
6015;SDS011;3036;49.960;8.454;2022-10-17T01:28:57;1.20;;;1.20;;
6015;SDS011;3036;49.960;8.454;2022-10-17T01:31:29;1.97;;;1.00;;
6015;SDS011;3036;49.960;8.454;2022-10-17T01:33:59;2.73;;;1.57;;
6015;SDS011;3036;49.960;8.454;2022-10-17T01:36:34;4.17;;;1.60;;
6015;SDS011;3036;49.960;8.454;2022-10-17T01:39:06;2.90;;;1.83;;
6015;SDS011;3036;49.960;8.454;2022-10-17T01:41:37;9.67;;;3.33;;
6015;SDS011;3036;49.960;8.454;2022-10-17T01:44:07;4.23;;;2.30;;
6015;SDS011;3036;49.960;8.454;2022-10-17T01:46:37;2.60;;;2.33;;
6015;SDS011;3036;49.960;8.454;2022-10-17T01:49:05;1.20;;;1.20;;
6015;SDS011;3036;49.960;8.454;2022-10-17T01:51:35;2.30;;;1.40;;
6015;SDS011;3036;49.960;8.454;2022-10-17T01:54:04;2.00;;;1.37;;
6015;SDS011;3036;49.960;8.454;2022-10-17T01:56:33;1.50;;;1.40;;
6015;SDS011;3036;49.960;8.454;2022-10-17T01:59:02;1.20;;;1.20;;
6015;SDS011;3036;49.960;8.454;2022-10-17T02:01:30;13.97;;;6.27;;
6015;SDS011;3036;49.960;8.454;2022-10-17T02:03:59;7.33;;;3.73;;
6015;SDS011;3036;49.960;8.454;2022-10-17T02:06:27;3.87;;;2.00;;
6015;SDS011;3036;49.960;8.454;2022-10-17T02:08:54;2.60;;;1.90;;
6015;SDS011;3036;49.960;8.454;2022-10-17T02:11:22;6.50;;;1.80;;
6015;SDS011;3036;49.960;8.454;2022-10-17T02:13:54;3.07;;;2.23;;
6015;SDS011;3036;49.960;8.454;2022-10-17T02:16:26;4.10;;;2.20;;
6015;SDS011;3036;49.960;8.454;2022-10-17T02:19:03;1.83;;;1.73;;
6015;SDS011;3036;49.960;8.454;2022-10-17T02:21:35;1.70;;;1.20;;
6015;SDS011;3036;49.960;8.454;2022-10-17T02:24:06;2.17;;;1.97;;
6015;SDS011;3036;49.960;8.454;2022-10-17T02:26:36;5.97;;;2.47;;
6015;SDS011;3036;49.960;8.454;2022-10-17T02:29:07;3.10;;;2.03;;
6015;SDS011;3036;49.960;8.454;2022-10-17T02:31:36;1.70;;;1.60;;
6015;SDS011;3036;49.960;8.454;2022-10-17T02:34:06;1.60;;;1.50;;
6015;SDS011;3036;49.960;8.454;2022-10-17T02:36:35;1.73;;;1.63;;
6015;SDS011;3036;49.960;8.454;2022-10-17T02:39:04;1.83;;;1.73;;
6015;SDS011;3036;49.960;8.454;2022-10-17T02:41:32;1.87;;;1.77;;
6015;SDS011;3036;49.960;8.454;2022-10-17T02:43:59;4.40;;;2.10;;
6015;SDS011;3036;49.960;8.454;2022-10-17T02:46:28;4.97;;;2.10;;
6015;SDS011;3036;49.960;8.454;2022-10-17T02:48:57;3.30;;;2.20;;
6015;SDS011;3036;49.960;8.454;2022-10-17T02:51:27;1.50;;;1.40;;
6015;SDS011;3036;49.960;8.454;2022-10-17T02:53:57;1.30;;;1.27;;
6015;SDS011;3036;49.960;8.454;2022-10-17T02:56:27;3.10;;;1.23;;
6015;SDS011;3036;49.960;8.454;2022-10-17T02:58:56;3.47;;;1.23;;
6015;SDS011;3036;49.960;8.454;2022-10-17T03:01:25;0.97;;;0.97;;
6015;SDS011;3036;49.960;8.454;2022-10-17T03:04:02;6.07;;;1.03;;
6015;SDS011;3036;49.960;8.454;2022-10-17T03:06:31;1.23;;;0.83;;
6015;SDS011;3036;49.960;8.454;2022-10-17T03:08:58;4.93;;;0.87;;
6015;SDS011;3036;49.960;8.454;2022-10-17T03:11:25;2.50;;;0.80;;
6015;SDS011;3036;49.960;8.454;2022-10-17T03:13:52;0.87;;;0.87;;
6015;SDS011;3036;49.960;8.454;2022-10-17T03:16:19;0.83;;;0.83;;
6015;SDS011;3036;49.960;8.454;2022-10-17T03:18:46;0.90;;;0.90;;
6015;SDS011;3036;49.960;8.454;2022-10-17T03:21:13;0.90;;;0.90;;
6015;SDS011;3036;49.960;8.454;2022-10-17T03:23:42;0.90;;;0.90;;
6015;SDS011;3036;49.960;8.454;2022-10-17T03:26:09;0.77;;;0.77;;
6015;SDS011;3036;49.960;8.454;2022-10-17T03:28:36;0.87;;;0.87;;
6015;SDS011;3036;49.960;8.454;2022-10-17T03:31:06;1.40;;;1.10;;
6015;SDS011;3036;49.960;8.454;2022-10-17T03:33:34;3.03;;;1.00;;
6015;SDS011;3036;49.960;8.454;2022-10-17T03:36:04;0.90;;;0.90;;
6015;SDS011;3036;49.960;8.454;2022-10-17T03:38:31;1.00;;;1.00;;
6015;SDS011;3036;49.960;8.454;2022-10-17T03:41:00;1.13;;;1.10;;
6015;SDS011;3036;49.960;8.454;2022-10-17T03:43:27;1.10;;;1.10;;
6015;SDS011;3036;49.960;8.454;2022-10-17T03:45:54;0.77;;;0.77;;
6015;SDS011;3036;49.960;8.454;2022-10-17T03:48:22;3.50;;;1.20;;
6015;SDS011;3036;49.960;8.454;2022-10-17T03:50:50;0.97;;;0.97;;
6015;SDS011;3036;49.960;8.454;2022-10-17T03:53:17;1.73;;;1.20;;
6015;SDS011;3036;49.960;8.454;2022-10-17T03:55:44;3.37;;;1.00;;
6015;SDS011;3036;49.960;8.454;2022-10-17T03:58:12;1.00;;;1.00;;
6015;SDS011;3036;49.960;8.454;2022-10-17T04:00:39;1.47;;;1.07;;
6015;SDS011;3036;49.960;8.454;2022-10-17T04:03:06;1.77;;;0.90;;
6015;SDS011;3036;49.960;8.454;2022-10-17T04:05:36;2.00;;;1.10;;
6015;SDS011;3036;49.960;8.454;2022-10-17T04:08:03;1.10;;;1.10;;
6015;SDS011;3036;49.960;8.454;2022-10-17T04:10:31;2.73;;;0.97;;
6015;SDS011;3036;49.960;8.454;2022-10-17T04:12:58;4.37;;;1.10;;
6015;SDS011;3036;49.960;8.454;2022-10-17T04:15:26;1.00;;;1.00;;
6015;SDS011;3036;49.960;8.454;2022-10-17T04:17:53;7.20;;;1.20;;
6015;SDS011;3036;49.960;8.454;2022-10-17T04:20:20;1.10;;;1.10;;
6015;SDS011;3036;49.960;8.454;2022-10-17T04:22:47;2.20;;;1.10;;
6015;SDS011;3036;49.960;8.454;2022-10-17T04:25:14;0.97;;;0.97;;
6015;SDS011;3036;49.960;8.454;2022-10-17T04:27:41;1.53;;;1.03;;
6015;SDS011;3036;49.960;8.454;2022-10-17T04:30:08;1.50;;;1.40;;
6015;SDS011;3036;49.960;8.454;2022-10-17T04:32:37;6.60;;;1.60;;
6015;SDS011;3036;49.960;8.454;2022-10-17T04:35:04;1.47;;;0.90;;
6015;SDS011;3036;49.960;8.454;2022-10-17T04:37:31;3.67;;;1.10;;
6015;SDS011;3036;49.960;8.454;2022-10-17T04:39:58;2.63;;;0.97;;
6015;SDS011;3036;49.960;8.454;2022-10-17T04:42:27;5.00;;;0.80;;
6015;SDS011;3036;49.960;8.454;2022-10-17T04:44:54;1.00;;;1.00;;
6015;SDS011;3036;49.960;8.454;2022-10-17T04:47:21;4.87;;;0.60;;
6015;SDS011;3036;49.960;8.454;2022-10-17T04:49:49;0.80;;;0.80;;
6015;SDS011;3036;49.960;8.454;2022-10-17T04:52:16;1.33;;;1.23;;
6015;SDS011;3036;49.960;8.454;2022-10-17T04:54:43;1.03;;;1.03;;
6015;SDS011;3036;49.960;8.454;2022-10-17T04:57:10;6.63;;;1.27;;
6015;SDS011;3036;49.960;8.454;2022-10-17T04:59:38;0.90;;;0.90;;
6015;SDS011;3036;49.960;8.454;2022-10-17T05:02:05;1.43;;;1.10;;
6015;SDS011;3036;49.960;8.454;2022-10-17T05:04:32;0.83;;;0.83;;
6015;SDS011;3036;49.960;8.454;2022-10-17T05:07:00;1.10;;;1.10;;
6015;SDS011;3036;49.960;8.454;2022-10-17T05:09:27;1.13;;;1.13;;
6015;SDS011;3036;49.960;8.454;2022-10-17T05:11:58;1.60;;;0.97;;
6015;SDS011;3036;49.960;8.454;2022-10-17T05:14:25;1.63;;;1.00;;
6015;SDS011;3036;49.960;8.454;2022-10-17T05:16:52;3.03;;;1.20;;
6015;SDS011;3036;49.960;8.454;2022-10-17T05:19:19;1.07;;;1.03;;
6015;SDS011;3036;49.960;8.454;2022-10-17T05:21:46;2.70;;;1.10;;
6015;SDS011;3036;49.960;8.454;2022-10-17T05:24:15;3.53;;;1.30;;
6015;SDS011;3036;49.960;8.454;2022-10-17T05:26:42;2.87;;;0.70;;
6015;SDS011;3036;49.960;8.454;2022-10-17T05:29:09;0.87;;;0.87;;
6015;SDS011;3036;49.960;8.454;2022-10-17T05:31:36;4.37;;;0.80;;
6015;SDS011;3036;49.960;8.454;2022-10-17T05:34:03;0.83;;;0.83;;
6015;SDS011;3036;49.960;8.454;2022-10-17T05:36:30;2.40;;;1.00;;
6015;SDS011;3036;49.960;8.454;2022-10-17T05:38:57;4.10;;;1.10;;
6015;SDS011;3036;49.960;8.454;2022-10-17T05:41:25;1.20;;;1.20;;
6015;SDS011;3036;49.960;8.454;2022-10-17T05:43:52;7.30;;;0.97;;
6015;SDS011;3036;49.960;8.454;2022-10-17T05:46:19;2.20;;;1.17;;
6015;SDS011;3036;49.960;8.454;2022-10-17T05:48:48;1.00;;;1.00;;
6015;SDS011;3036;49.960;8.454;2022-10-17T05:51:15;1.33;;;0.87;;
6015;SDS011;3036;49.960;8.454;2022-10-17T05:53:42;1.03;;;1.03;;
6015;SDS011;3036;49.960;8.454;2022-10-17T05:56:10;2.73;;;0.73;;
6015;SDS011;3036;49.960;8.454;2022-10-17T05:58:40;1.20;;;1.20;;
6015;SDS011;3036;49.960;8.454;2022-10-17T06:01:09;2.73;;;1.50;;
6015;SDS011;3036;49.960;8.454;2022-10-17T06:03:38;2.17;;;1.20;;
6015;SDS011;3036;49.960;8.454;2022-10-17T06:06:05;1.00;;;1.00;;
6015;SDS011;3036;49.960;8.454;2022-10-17T06:08:32;2.00;;;1.10;;
6015;SDS011;3036;49.960;8.454;2022-10-17T06:11:00;4.03;;;1.57;;
6015;SDS011;3036;49.960;8.454;2022-10-17T06:13:27;1.10;;;1.10;;
6015;SDS011;3036;49.960;8.454;2022-10-17T06:15:56;6.33;;;1.57;;
6015;SDS011;3036;49.960;8.454;2022-10-17T06:18:23;1.10;;;1.00;;
6015;SDS011;3036;49.960;8.454;2022-10-17T06:20:50;1.30;;;1.20;;
6015;SDS011;3036;49.960;8.454;2022-10-17T06:23:17;4.07;;;1.07;;
6015;SDS011;3036;49.960;8.454;2022-10-17T06:25:44;2.93;;;1.30;;
6015;SDS011;3036;49.960;8.454;2022-10-17T06:28:11;3.60;;;1.20;;
6015;SDS011;3036;49.960;8.454;2022-10-17T06:30:38;1.43;;;1.10;;
6015;SDS011;3036;49.960;8.454;2022-10-17T06:33:07;2.50;;;1.43;;
6015;SDS011;3036;49.960;8.454;2022-10-17T06:35:34;1.23;;;1.00;;
6015;SDS011;3036;49.960;8.454;2022-10-17T06:38:02;1.23;;;1.20;;
6015;SDS011;3036;49.960;8.454;2022-10-17T06:40:29;1.70;;;1.23;;
6015;SDS011;3036;49.960;8.454;2022-10-17T06:42:56;4.53;;;1.10;;
6015;SDS011;3036;49.960;8.454;2022-10-17T06:45:23;1.00;;;1.00;;
6015;SDS011;3036;49.960;8.454;2022-10-17T06:47:50;1.43;;;0.87;;
6015;SDS011;3036;49.960;8.454;2022-10-17T06:50:19;7.07;;;1.23;;
6015;SDS011;3036;49.960;8.454;2022-10-17T06:52:49;2.67;;;1.00;;
6015;SDS011;3036;49.960;8.454;2022-10-17T06:55:16;1.50;;;1.40;;
6015;SDS011;3036;49.960;8.454;2022-10-17T06:57:43;1.23;;;0.93;;
6015;SDS011;3036;49.960;8.454;2022-10-17T07:00:11;2.30;;;1.10;;
6015;SDS011;3036;49.960;8.454;2022-10-17T07:02:40;1.30;;;1.20;;
6015;SDS011;3036;49.960;8.454;2022-10-17T07:05:08;4.53;;;1.00;;
6015;SDS011;3036;49.960;8.454;2022-10-17T07:07:37;3.03;;;1.23;;
6015;SDS011;3036;49.960;8.454;2022-10-17T07:10:04;6.17;;;1.20;;
6015;SDS011;3036;49.960;8.454;2022-10-17T07:12:32;1.00;;;1.00;;
6015;SDS011;3036;49.960;8.454;2022-10-17T07:14:59;2.80;;;0.97;;
6015;SDS011;3036;49.960;8.454;2022-10-17T07:17:28;1.03;;;1.03;;
6015;SDS011;3036;49.960;8.454;2022-10-17T07:19:55;4.43;;;1.40;;
6015;SDS011;3036;49.960;8.454;2022-10-17T07:22:22;1.43;;;1.23;;
6015;SDS011;3036;49.960;8.454;2022-10-17T07:24:50;9.30;;;1.40;;
6015;SDS011;3036;49.960;8.454;2022-10-17T07:27:18;1.70;;;1.60;;
6015;SDS011;3036;49.960;8.454;2022-10-17T07:29:45;1.63;;;1.50;;
6015;SDS011;3036;49.960;8.454;2022-10-17T07:32:12;8.10;;;1.30;;
6015;SDS011;3036;49.960;8.454;2022-10-17T07:34:39;1.60;;;1.50;;
6015;SDS011;3036;49.960;8.454;2022-10-17T07:37:06;5.67;;;1.57;;
6015;SDS011;3036;49.960;8.454;2022-10-17T07:39:33;3.47;;;1.60;;
6015;SDS011;3036;49.960;8.454;2022-10-17T07:42:02;2.67;;;1.80;;
6015;SDS011;3036;49.960;8.454;2022-10-17T07:44:31;2.13;;;1.90;;
6015;SDS011;3036;49.960;8.454;2022-10-17T07:46:59;1.83;;;1.73;;
6015;SDS011;3036;49.960;8.454;2022-10-17T07:49:26;2.80;;;2.10;;
6015;SDS011;3036;49.960;8.454;2022-10-17T07:51:54;5.17;;;2.60;;
6015;SDS011;3036;49.960;8.454;2022-10-17T07:54:21;3.57;;;2.03;;
6015;SDS011;3036;49.960;8.454;2022-10-17T07:56:48;2.67;;;2.43;;
6015;SDS011;3036;49.960;8.454;2022-10-17T07:59:17;2.63;;;2.53;;
6015;SDS011;3036;49.960;8.454;2022-10-17T08:01:44;3.27;;;2.70;;
6015;SDS011;3036;49.960;8.454;2022-10-17T08:04:11;2.78;;;2.67;;
6015;SDS011;3036;49.960;8.454;2022-10-17T08:06:38;2.40;;;2.30;;
6015;SDS011;3036;49.960;8.454;2022-10-17T08:09:05;2.45;;;2.35;;
6015;SDS011;3036;49.960;8.454;2022-10-17T08:11:32;2.90;;;2.70;;
6015;SDS011;3036;49.960;8.454;2022-10-17T08:14:00;3.25;;;2.60;;
6015;SDS011;3036;49.960;8.454;2022-10-17T08:16:28;2.75;;;2.65;;
6015;SDS011;3036;49.960;8.454;2022-10-17T08:18:56;2.90;;;2.70;;
6015;SDS011;3036;49.960;8.454;2022-10-17T08:21:23;2.28;;;2.00;;
6015;SDS011;3036;49.960;8.454;2022-10-17T08:23:50;3.75;;;2.55;;
6015;SDS011;3036;49.960;8.454;2022-10-17T08:26:17;2.78;;;2.63;;
6015;SDS011;3036;49.960;8.454;2022-10-17T08:28:44;2.40;;;2.30;;
6015;SDS011;3036;49.960;8.454;2022-10-17T08:31:13;2.70;;;2.60;;
6015;SDS011;3036;49.960;8.454;2022-10-17T08:33:43;2.47;;;2.20;;
6015;SDS011;3036;49.960;8.454;2022-10-17T08:36:11;2.95;;;2.17;;
6015;SDS011;3036;49.960;8.454;2022-10-17T08:38:38;8.73;;;2.55;;
6015;SDS011;3036;49.960;8.454;2022-10-17T08:41:10;2.00;;;1.85;;
6015;SDS011;3036;49.960;8.454;2022-10-17T08:46:28;2.30;;;2.10;;
6015;SDS011;3036;49.960;8.454;2022-10-17T08:48:57;2.83;;;2.42;;
6015;SDS011;3036;49.960;8.454;2022-10-17T08:51:25;2.20;;;2.10;;
6015;SDS011;3036;49.960;8.454;2022-10-17T08:53:54;2.20;;;2.10;;
6015;SDS011;3036;49.960;8.454;2022-10-17T08:56:23;2.38;;;2.30;;
6015;SDS011;3036;49.960;8.454;2022-10-17T08:58:50;2.63;;;2.33;;
6015;SDS011;3036;49.960;8.454;2022-10-17T09:01:27;4.40;;;2.63;;
6015;SDS011;3036;49.960;8.454;2022-10-17T09:04:00;2.65;;;2.50;;
6015;SDS011;3036;49.960;8.454;2022-10-17T09:06:30;2.63;;;2.45;;
6015;SDS011;3036;49.960;8.454;2022-10-17T09:09:05;2.38;;;2.10;;
6015;SDS011;3036;49.960;8.454;2022-10-17T09:11:45;2.38;;;2.28;;
6015;SDS011;3036;49.960;8.454;2022-10-17T09:14:21;2.72;;;2.45;;
6015;SDS011;3036;49.960;8.454;2022-10-17T09:17:03;2.58;;;2.40;;
6015;SDS011;3036;49.960;8.454;2022-10-17T09:19:34;1.88;;;1.85;;
6015;SDS011;3036;49.960;8.454;2022-10-17T09:22:03;2.03;;;1.92;;
6015;SDS011;3036;49.960;8.454;2022-10-17T09:24:34;3.58;;;2.88;;
6015;SDS011;3036;49.960;8.454;2022-10-17T09:27:03;2.50;;;2.40;;
6015;SDS011;3036;49.960;8.454;2022-10-17T09:29:31;2.55;;;2.25;;
6015;SDS011;3036;49.960;8.454;2022-10-17T09:31:59;1.80;;;1.70;;
6015;SDS011;3036;49.960;8.454;2022-10-17T09:34:28;2.20;;;2.10;;
6015;SDS011;3036;49.960;8.454;2022-10-17T09:36:58;1.98;;;1.88;;
6015;SDS011;3036;49.960;8.454;2022-10-17T09:39:26;2.45;;;1.95;;
6015;SDS011;3036;49.960;8.454;2022-10-17T09:41:56;2.00;;;1.88;;
6015;SDS011;3036;49.960;8.454;2022-10-17T09:44:24;1.95;;;1.85;;
6015;SDS011;3036;49.960;8.454;2022-10-17T09:46:58;1.90;;;1.80;;
6015;SDS011;3036;49.960;8.454;2022-10-17T09:49:30;2.22;;;1.70;;
6015;SDS011;3036;49.960;8.454;2022-10-17T09:52:00;3.45;;;2.13;;
6015;SDS011;3036;49.960;8.454;2022-10-17T09:54:28;1.45;;;1.45;;
6015;SDS011;3036;49.960;8.454;2022-10-17T09:57:00;4.18;;;1.70;;
6015;SDS011;3036;49.960;8.454;2022-10-17T09:59:31;2.63;;;2.05;;
6015;SDS011;3036;49.960;8.454;2022-10-17T10:02:12;4.63;;;1.50;;
6015;SDS011;3036;49.960;8.454;2022-10-17T10:04:50;4.15;;;1.75;;
6015;SDS011;3036;49.960;8.454;2022-10-17T10:07:18;4.35;;;1.90;;
6015;SDS011;3036;49.960;8.454;2022-10-17T10:09:47;2.15;;;1.98;;
6015;SDS011;3036;49.960;8.454;2022-10-17T10:12:15;3.00;;;2.00;;
6015;SDS011;3036;49.960;8.454;2022-10-17T10:14:43;1.70;;;1.70;;
6015;SDS011;3036;49.960;8.454;2022-10-17T10:17:24;2.70;;;2.47;;
6015;SDS011;3036;49.960;8.454;2022-10-17T10:19:51;2.10;;;2.00;;
6015;SDS011;3036;49.960;8.454;2022-10-17T10:22:20;2.08;;;1.33;;
6015;SDS011;3036;49.960;8.454;2022-10-17T10:24:56;6.22;;;1.98;;
6015;SDS011;3036;49.960;8.454;2022-10-17T10:27:32;2.30;;;2.20;;
6015;SDS011;3036;49.960;8.454;2022-10-17T10:29:59;1.92;;;1.83;;
6015;SDS011;3036;49.960;8.454;2022-10-17T10:32:27;2.00;;;1.90;;
6015;SDS011;3036;49.960;8.454;2022-10-17T10:34:55;1.48;;;1.48;;
6015;SDS011;3036;49.960;8.454;2022-10-17T10:37:25;2.08;;;1.98;;
6015;SDS011;3036;49.960;8.454;2022-10-17T10:39:53;1.65;;;1.55;;
6015;SDS011;3036;49.960;8.454;2022-10-17T10:42:22;1.90;;;1.60;;
6015;SDS011;3036;49.960;8.454;2022-10-17T10:44:50;1.40;;;1.38;;
6015;SDS011;3036;49.960;8.454;2022-10-17T10:47:19;1.80;;;1.70;;
6015;SDS011;3036;49.960;8.454;2022-10-17T10:49:46;2.17;;;1.70;;
6015;SDS011;3036;49.960;8.454;2022-10-17T10:52:22;1.52;;;1.42;;
6015;SDS011;3036;49.960;8.454;2022-10-17T10:54:52;2.95;;;1.75;;
6015;SDS011;3036;49.960;8.454;2022-10-17T10:57:21;1.70;;;1.63;;
6015;SDS011;3036;49.960;8.454;2022-10-17T10:59:53;3.70;;;1.52;;
6015;SDS011;3036;49.960;8.454;2022-10-17T11:02:23;2.00;;;1.90;;
6015;SDS011;3036;49.960;8.454;2022-10-17T11:04:53;1.60;;;1.50;;
6015;SDS011;3036;49.960;8.454;2022-10-17T11:07:21;3.70;;;1.60;;
6015;SDS011;3036;49.960;8.454;2022-10-17T11:09:53;1.73;;;1.63;;
6015;SDS011;3036;49.960;8.454;2022-10-17T11:12:23;1.60;;;1.50;;
6015;SDS011;3036;49.960;8.454;2022-10-17T11:14:52;1.33;;;1.33;;
6015;SDS011;3036;49.960;8.454;2022-10-17T11:17:24;3.30;;;1.52;;
6015;SDS011;3036;49.960;8.454;2022-10-17T11:19:55;1.50;;;1.38;;
6015;SDS011;3036;49.960;8.454;2022-10-17T11:22:25;1.30;;;1.30;;
6015;SDS011;3036;49.960;8.454;2022-10-17T11:24:55;1.40;;;1.30;;
6015;SDS011;3036;49.960;8.454;2022-10-17T11:27:25;9.02;;;1.73;;
6015;SDS011;3036;49.960;8.454;2022-10-17T11:29:55;2.03;;;1.60;;
6015;SDS011;3036;49.960;8.454;2022-10-17T11:32:25;2.03;;;1.63;;
6015;SDS011;3036;49.960;8.454;2022-10-17T11:34:57;1.60;;;1.50;;
6015;SDS011;3036;49.960;8.454;2022-10-17T11:37:26;1.80;;;1.70;;
6015;SDS011;3036;49.960;8.454;2022-10-17T11:39:57;1.20;;;1.20;;
6015;SDS011;3036;49.960;8.454;2022-10-17T11:42:27;2.38;;;1.50;;
6015;SDS011;3036;49.960;8.454;2022-10-17T11:44:56;1.40;;;1.40;;
6015;SDS011;3036;49.960;8.454;2022-10-17T11:47:30;1.25;;;1.25;;
6015;SDS011;3036;49.960;8.454;2022-10-17T11:49:59;1.75;;;1.65;;
6015;SDS011;3036;49.960;8.454;2022-10-17T11:52:31;1.98;;;1.42;;
6015;SDS011;3036;49.960;8.454;2022-10-17T11:55:02;1.65;;;1.10;;
6015;SDS011;3036;49.960;8.454;2022-10-17T11:57:35;2.08;;;1.45;;
6015;SDS011;3036;49.960;8.454;2022-10-17T12:00:08;1.75;;;1.58;;
6015;SDS011;3036;49.960;8.454;2022-10-17T12:02:40;2.25;;;1.50;;
6015;SDS011;3036;49.960;8.454;2022-10-17T12:05:13;1.15;;;1.15;;
6015;SDS011;3036;49.960;8.454;2022-10-17T12:07:45;2.88;;;1.50;;
6015;SDS011;3036;49.960;8.454;2022-10-17T12:10:18;3.60;;;1.17;;
6015;SDS011;3036;49.960;8.454;2022-10-17T12:12:50;1.17;;;1.17;;
6015;SDS011;3036;49.960;8.454;2022-10-17T12:15:27;2.47;;;1.50;;
6015;SDS011;3036;49.960;8.454;2022-10-17T12:17:55;2.00;;;1.55;;
6015;SDS011;3036;49.960;8.454;2022-10-17T12:20:28;2.22;;;1.48;;
6015;SDS011;3036;49.960;8.454;2022-10-17T12:22:58;1.25;;;1.25;;
6015;SDS011;3036;49.960;8.454;2022-10-17T12:25:28;1.35;;;1.25;;
6015;SDS011;3036;49.960;8.454;2022-10-17T12:30:49;2.33;;;1.30;;
6015;SDS011;3036;49.960;8.454;2022-10-17T12:33:16;1.38;;;1.27;;
6015;SDS011;3036;49.960;8.454;2022-10-17T12:35:46;3.05;;;1.40;;
6015;SDS011;3036;49.960;8.454;2022-10-17T12:40:58;3.40;;;1.70;;
6015;SDS011;3036;49.960;8.454;2022-10-17T12:43:45;2.53;;;1.25;;
6015;SDS011;3036;49.960;8.454;2022-10-17T12:46:12;1.08;;;1.08;;
6015;SDS011;3036;49.960;8.454;2022-10-17T12:49:02;2.70;;;1.70;;
6015;SDS011;3036;49.960;8.454;2022-10-17T12:51:29;2.30;;;1.42;;
6015;SDS011;3036;49.960;8.454;2022-10-17T12:54:18;1.50;;;1.40;;
6015;SDS011;3036;49.960;8.454;2022-10-17T12:56:45;1.35;;;1.35;;
6015;SDS011;3036;49.960;8.454;2022-10-17T12:59:13;1.58;;;1.50;;
6015;SDS011;3036;49.960;8.454;2022-10-17T13:01:42;3.50;;;1.50;;
6015;SDS011;3036;49.960;8.454;2022-10-17T13:04:11;4.22;;;1.50;;
6015;SDS011;3036;49.960;8.454;2022-10-17T13:06:38;1.38;;;1.30;;
6015;SDS011;3036;49.960;8.454;2022-10-17T13:09:14;1.50;;;1.50;;
6015;SDS011;3036;49.960;8.454;2022-10-17T13:11:45;2.10;;;1.27;;
6015;SDS011;3036;49.960;8.454;2022-10-17T13:14:15;8.82;;;1.45;;
6015;SDS011;3036;49.960;8.454;2022-10-17T13:16:49;1.10;;;1.10;;
6015;SDS011;3036;49.960;8.454;2022-10-17T13:19:17;1.52;;;1.17;;
6015;SDS011;3036;49.960;8.454;2022-10-17T13:21:50;1.40;;;0.95;;
6015;SDS011;3036;49.960;8.454;2022-10-17T13:24:20;1.95;;;1.00;;
6015;SDS011;3036;49.960;8.454;2022-10-17T13:26:48;1.15;;;1.08;;
6015;SDS011;3036;49.960;8.454;2022-10-17T13:29:15;2.90;;;1.38;;
6015;SDS011;3036;49.960;8.454;2022-10-17T13:31:44;1.40;;;1.30;;
6015;SDS011;3036;49.960;8.454;2022-10-17T13:34:17;1.95;;;1.17;;
6015;SDS011;3036;49.960;8.454;2022-10-17T13:36:45;1.00;;;1.00;;
6015;SDS011;3036;49.960;8.454;2022-10-17T13:39:14;1.58;;;1.23;;
6015;SDS011;3036;49.960;8.454;2022-10-17T13:41:42;1.20;;;1.20;;
6015;SDS011;3036;49.960;8.454;2022-10-17T13:44:12;1.27;;;1.27;;
6015;SDS011;3036;49.960;8.454;2022-10-17T13:46:39;1.08;;;1.08;;
6015;SDS011;3036;49.960;8.454;2022-10-17T13:51:52;1.40;;;1.10;;
6015;SDS011;3036;49.960;8.454;2022-10-17T13:54:33;4.03;;;1.15;;
6015;SDS011;3036;49.960;8.454;2022-10-17T13:57:01;1.73;;;1.17;;
6015;SDS011;3036;49.960;8.454;2022-10-17T13:59:31;1.10;;;1.10;;
6015;SDS011;3036;49.960;8.454;2022-10-17T14:01:59;2.30;;;1.23;;
6015;SDS011;3036;49.960;8.454;2022-10-17T14:04:26;1.13;;;1.10;;
6015;SDS011;3036;49.960;8.454;2022-10-17T14:06:55;2.05;;;1.20;;
6015;SDS011;3036;49.960;8.454;2022-10-17T14:09:24;1.17;;;1.10;;
6015;SDS011;3036;49.960;8.454;2022-10-17T14:12:01;4.00;;;1.20;;
6015;SDS011;3036;49.960;8.454;2022-10-17T14:14:30;1.10;;;1.10;;
6015;SDS011;3036;49.960;8.454;2022-10-17T14:16:58;1.45;;;0.98;;
6015;SDS011;3036;49.960;8.454;2022-10-17T14:19:30;1.27;;;0.95;;
6015;SDS011;3036;49.960;8.454;2022-10-17T14:22:13;1.42;;;1.33;;
6015;SDS011;3036;49.960;8.454;2022-10-17T14:24:41;1.10;;;1.10;;
6015;SDS011;3036;49.960;8.454;2022-10-17T14:27:23;1.42;;;1.33;;
6015;SDS011;3036;49.960;8.454;2022-10-17T14:29:52;3.97;;;1.30;;
6015;SDS011;3036;49.960;8.454;2022-10-17T14:32:21;1.40;;;1.40;;
6015;SDS011;3036;49.960;8.454;2022-10-17T14:34:51;1.25;;;1.20;;
6015;SDS011;3036;49.960;8.454;2022-10-17T14:37:23;1.13;;;1.13;;
6015;SDS011;3036;49.960;8.454;2022-10-17T14:39:52;1.08;;;1.02;;
6015;SDS011;3036;49.960;8.454;2022-10-17T14:42:21;1.13;;;1.13;;
6015;SDS011;3036;49.960;8.454;2022-10-17T14:44:50;2.42;;;1.05;;
6015;SDS011;3036;49.960;8.454;2022-10-17T14:47:19;2.55;;;1.42;;
6015;SDS011;3036;49.960;8.454;2022-10-17T14:49:48;1.15;;;1.13;;
6015;SDS011;3036;49.960;8.454;2022-10-17T14:52:29;1.20;;;1.20;;
6015;SDS011;3036;49.960;8.454;2022-10-17T14:54:56;1.50;;;1.40;;
6015;SDS011;3036;49.960;8.454;2022-10-17T14:57:25;1.30;;;1.20;;
6015;SDS011;3036;49.960;8.454;2022-10-17T14:59:53;1.17;;;1.15;;
6015;SDS011;3036;49.960;8.454;2022-10-17T15:02:21;1.60;;;1.10;;
6015;SDS011;3036;49.960;8.454;2022-10-17T15:04:48;4.63;;;1.70;;
6015;SDS011;3036;49.960;8.454;2022-10-17T15:07:16;1.73;;;1.38;;
6015;SDS011;3036;49.960;8.454;2022-10-17T15:09:46;1.95;;;1.55;;
6015;SDS011;3036;49.960;8.454;2022-10-17T15:12:13;1.55;;;1.45;;
6015;SDS011;3036;49.960;8.454;2022-10-17T15:14:41;2.08;;;1.33;;
6015;SDS011;3036;49.960;8.454;2022-10-17T15:17:11;1.90;;;1.30;;
6015;SDS011;3036;49.960;8.454;2022-10-17T15:19:40;1.48;;;1.48;;
6015;SDS011;3036;49.960;8.454;2022-10-17T15:22:07;1.60;;;1.50;;
6015;SDS011;3036;49.960;8.454;2022-10-17T15:24:34;1.73;;;1.23;;
6015;SDS011;3036;49.960;8.454;2022-10-17T15:27:02;1.30;;;1.30;;
6015;SDS011;3036;49.960;8.454;2022-10-17T15:29:29;1.23;;;1.20;;
6015;SDS011;3036;49.960;8.454;2022-10-17T15:31:56;3.08;;;1.50;;
6015;SDS011;3036;49.960;8.454;2022-10-17T15:34:23;1.30;;;1.20;;
6015;SDS011;3036;49.960;8.454;2022-10-17T15:36:51;0.95;;;0.95;;
6015;SDS011;3036;49.960;8.454;2022-10-17T15:39:18;2.40;;;1.50;;
6015;SDS011;3036;49.960;8.454;2022-10-17T15:41:46;1.00;;;1.00;;